Time;durP1;ratioP1;P1;durP2;ratioP2;P2;SDS_P1;SDS_P2;PMS_P1;PMS_P2;Temp;Humidity;BMP_temperature;BMP_pressure;BME280_temperature;BME280_humidity;BME280_pressure;Samples;Min_cycle;Max_cycle;Signal;HPM_P1;HPM_P2
2023/04/25 00:02:25;;;;;;;4.30;3.60;;;11.80;96.50;;;;;;5034170;28;20433;-49
2023/04/25 00:04:52;;;;;;;3.90;3.10;;;11.40;96.30;;;;;;5034164;28;20444;-50
2023/04/25 00:07:19;;;;;;;6.13;3.90;;;11.80;96.60;;;;;;5033913;28;20477;-49
2023/04/25 00:09:45;;;;;;;5.87;3.57;;;11.50;96.40;;;;;;5033548;28;20501;-48
2023/04/25 00:12:13;;;;;;;6.10;3.60;;;11.60;96.40;;;;;;5034115;28;20857;-50
2023/04/25 00:14:40;;;;;;;3.50;2.57;;;11.30;96.20;;;;;;5034236;28;20433;-50
2023/04/25 00:17:07;;;;;;;6.47;3.57;;;11.50;96.20;;;;;;5034824;28;20859;-49
2023/04/25 00:19:34;;;;;;;6.07;3.23;;;11.90;96.70;;;;;;5033523;28;20444;-50
2023/04/25 00:22:01;;;;;;;3.17;2.53;;;11.50;96.00;;;;;;5034380;28;20445;-50
2023/04/25 00:24:28;;;;;;;6.30;2.73;;;11.80;96.10;;;;;;5033703;28;20440;-51
2023/04/25 00:26:54;;;;;;;8.50;2.70;;;11.70;95.90;;;;;;5015617;28;20461;-50
2023/04/25 00:29:22;;;;;;;5.20;3.37;;;11.30;95.80;;;;;;5015663;28;20473;-49
2023/04/25 00:31:49;;;;;;;5.10;3.60;;;11.90;95.80;;;;;;5015482;28;20435;-49
2023/04/25 00:34:16;;;;;;;4.57;2.90;;;11.00;95.30;;;;;;5015979;28;20453;-50
2023/04/25 00:36:42;;;;;;;5.60;3.13;;;11.40;95.50;;;;;;5016479;28;20500;-49
2023/04/25 00:39:09;;;;;;;5.80;2.80;;;11.50;95.60;;;;;;5015715;28;20541;-47
2023/04/25 00:41:37;;;;;;;4.17;2.43;;;11.50;95.60;;;;;;5015792;28;20578;-48
2023/04/25 00:44:06;;;;;;;7.83;3.27;;;11.80;95.70;;;;;;5015947;28;20964;-48
2023/04/25 00:46:36;;;;;;;6.80;3.23;;;11.40;95.40;;;;;;5033348;28;20452;-49
2023/04/25 00:49:02;;;;;;;6.03;3.20;;;11.20;95.20;;;;;;5033153;28;20484;-49
2023/04/25 00:51:29;;;;;;;4.10;2.53;;;11.80;95.60;;;;;;5016432;28;20452;-48
2023/04/25 00:53:56;;;;;;;6.60;2.90;;;11.50;95.60;;;;;;5034224;28;20933;-47
2023/04/25 00:56:23;;;;;;;7.30;3.00;;;11.00;95.20;;;;;;5017576;28;20469;-47
2023/04/25 00:58:53;;;;;;;3.90;2.60;;;11.20;95.40;;;;;;5018811;28;20451;-47
2023/04/25 01:01:19;;;;;;;7.83;3.30;;;11.30;95.40;;;;;;5016847;28;20444;-49
2023/04/25 01:03:49;;;;;;;5.40;2.87;;;11.30;95.50;;;;;;5034174;28;20445;-47
2023/04/25 01:06:17;;;;;;;6.67;2.90;;;11.60;95.60;;;;;;5036100;28;20827;-49
2023/04/25 01:08:44;;;;;;;5.80;3.50;;;11.40;95.60;;;;;;5017434;28;20445;-48
2023/04/25 01:11:10;;;;;;;3.77;2.73;;;11.50;95.70;;;;;;5017043;28;20865;-49
2023/04/25 01:13:37;;;;;;;6.93;3.13;;;10.80;95.40;;;;;;5016908;28;20453;-49
2023/04/25 01:16:05;;;;;;;5.60;3.70;;;11.50;95.70;;;;;;5033860;28;20447;-48
2023/04/25 01:18:32;;;;;;;9.30;3.90;;;11.40;95.70;;;;;;5015774;28;20453;-49
2023/04/25 01:21:07;;;;;;;6.20;2.97;;;11.70;95.80;;;;;;5015817;28;20536;-47
2023/04/25 01:23:34;;;;;;;5.30;3.00;;;11.20;95.70;;;;;;5032621;28;20453;-48
2023/04/25 01:26:01;;;;;;;9.10;3.53;;;11.30;95.70;;;;;;5034207;28;20970;-50
2023/04/25 01:28:28;;;;;;;5.40;3.37;;;11.40;95.80;;;;;;5015063;28;20460;-48
2023/04/25 01:30:56;;;;;;;6.63;3.70;;;11.40;95.80;;;;;;5034015;28;20484;-48
2023/04/25 01:33:23;;;;;;;7.60;3.40;;;11.40;95.60;;;;;;5015498;28;20761;-48
2023/04/25 01:35:50;;;;;;;11.27;4.00;;;11.80;95.80;;;;;;5032314;28;20450;-49
2023/04/25 01:38:21;;;;;;;8.13;3.40;;;11.70;95.90;;;;;;5014231;28;20513;-48
2023/04/25 01:40:51;;;;;;;6.00;3.23;;;11.60;95.70;;;;;;5032093;28;20435;-49
2023/04/25 01:43:19;;;;;;;7.87;3.03;;;11.30;95.50;;;;;;5013895;28;20453;-48
2023/04/25 01:45:46;;;;;;;5.00;3.30;;;11.70;95.80;;;;;;5014257;28;20465;-49
2023/04/25 01:48:14;;;;;;;9.17;3.43;;;11.70;95.80;;;;;;5014013;28;20447;-48
2023/04/25 01:50:44;;;;;;;9.53;3.83;;;11.30;95.50;;;;;;5014381;28;20906;-48
2023/04/25 01:53:14;;;;;;;12.30;4.27;;;11.30;95.50;;;;;;5014225;28;20445;-48
2023/04/25 01:55:43;;;;;;;7.83;4.10;;;12.00;95.90;;;;;;5031865;28;20537;-49
2023/04/25 01:58:13;;;;;;;7.33;3.60;;;11.90;95.80;;;;;;5013769;28;20485;-49
2023/04/25 02:00:58;;;;;;;4.63;3.20;;;11.10;95.40;;;;;;5032392;28;20589;-49
2023/04/25 02:03:30;;;;;;;5.87;3.73;;;11.80;95.70;;;;;;5014418;28;20873;-49
2023/04/25 02:05:57;;;;;;;4.30;3.37;;;11.80;95.80;;;;;;5014979;28;21076;-50
2023/04/25 02:08:25;;;;;;;7.30;3.40;;;11.50;95.60;;;;;;5015973;28;20555;-49
2023/04/25 02:10:56;;;;;;;9.10;3.93;;;11.30;95.50;;;;;;5016268;28;20476;-50
2023/04/25 02:13:23;;;;;;;8.57;4.00;;;11.70;95.70;;;;;;5016611;28;20449;-49
2023/04/25 02:15:58;;;;;;;6.60;3.73;;;11.50;95.60;;;;;;5016175;28;20471;-49
2023/04/25 02:18:26;;;;;;;10.00;3.90;;;11.50;95.80;;;;;;5015818;28;20486;-48
2023/04/25 02:20:53;;;;;;;7.90;4.07;;;11.50;95.60;;;;;;5016469;28;20513;-49
2023/04/25 02:23:20;;;;;;;6.87;3.47;;;11.70;95.80;;;;;;5034352;28;20915;-48
2023/04/25 02:25:47;;;;;;;6.33;4.53;;;11.80;95.90;;;;;;5034352;28;20467;-49
2023/04/25 02:28:15;;;;;;;7.87;3.90;;;11.90;96.00;;;;;;5015749;28;20452;-49
2023/04/25 02:30:42;;;;;;;6.23;3.97;;;10.90;95.50;;;;;;5015620;28;20486;-49
2023/04/25 02:33:10;;;;;;;5.57;4.20;;;11.50;95.90;;;;;;5015973;28;20428;-49
2023/04/25 02:35:36;;;;;;;5.93;3.80;;;11.60;96.10;;;;;;5016091;28;20468;-49
2023/04/25 02:38:03;;;;;;;8.40;4.30;;;11.50;96.00;;;;;;5033819;28;20436;-50
2023/04/25 02:40:30;;;;;;;8.80;4.80;;;11.40;96.00;;;;;;5033458;28;20427;-49
2023/04/25 02:42:57;;;;;;;7.23;4.30;;;11.90;96.20;;;;;;5015845;28;20499;-49
2023/04/25 02:45:27;;;;;;;7.17;4.47;;;11.00;95.60;;;;;;5016319;28;20564;-49
2023/04/25 02:47:53;;;;;;;7.00;3.60;;;11.40;95.90;;;;;;5033968;28;20441;-50
2023/04/25 02:50:20;;;;;;;8.57;3.40;;;11.50;95.90;;;;;;5033459;28;20888;-50
2023/04/25 02:52:47;;;;;;;6.67;4.40;;;11.40;96.10;;;;;;5033956;28;20701;-49
2023/04/25 02:55:22;;;;;;;8.70;4.47;;;11.40;96.10;;;;;;5018964;28;20479;-51
2023/04/25 02:57:49;;;;;;;11.20;4.13;;;11.30;95.90;;;;;;5019368;28;20507;-50
2023/04/25 03:00:25;;;;;;;10.80;5.17;;;11.40;96.00;;;;;;5035443;28;20503;-48
2023/04/25 03:02:53;;;;;;;6.10;4.60;;;11.50;96.20;;;;;;5019529;28;20829;-49
2023/04/25 03:05:20;;;;;;;15.33;5.27;;;11.30;96.10;;;;;;5018898;28;20481;-49
2023/04/25 03:07:46;;;;;;;6.80;4.23;;;11.50;96.20;;;;;;5018234;28;20452;-49
2023/04/25 03:10:13;;;;;;;6.67;4.40;;;11.40;96.20;;;;;;5018282;28;20480;-49
2023/04/25 03:12:40;;;;;;;7.30;4.50;;;11.20;96.10;;;;;;5018749;28;20445;-49
2023/04/25 03:15:08;;;;;;;8.97;4.70;;;11.80;96.50;;;;;;5018656;28;20481;-49
2023/04/25 03:17:34;;;;;;;9.53;5.00;;;11.30;96.10;;;;;;5018826;28;20444;-49
2023/04/25 03:20:03;;;;;;;6.23;4.40;;;11.60;96.40;;;;;;5018337;28;20822;-48
2023/04/25 03:22:31;;;;;;;6.50;4.47;;;11.70;96.30;;;;;;5035110;28;20444;-49
2023/04/25 03:24:58;;;;;;;7.73;4.73;;;11.20;96.30;;;;;;5018810;28;20459;-49
2023/04/25 03:27:24;;;;;;;6.80;4.40;;;10.80;95.90;;;;;;5036400;28;20535;-49
2023/04/25 03:29:51;;;;;;;7.60;4.40;;;11.50;96.40;;;;;;5018169;28;20527;-49
2023/04/25 03:32:18;;;;;;;7.67;4.87;;;11.30;96.40;;;;;;5018433;28;20476;-49
2023/04/25 03:34:46;;;;;;;6.17;4.43;;;11.50;96.60;;;;;;5018325;28;21018;-49
2023/04/25 03:37:14;;;;;;;8.87;5.03;;;11.20;96.30;;;;;;5017774;28;20566;-49
2023/04/25 03:39:41;;;;;;;6.63;4.60;;;11.40;96.60;;;;;;5017541;28;20448;-49
2023/04/25 03:42:07;;;;;;;8.53;4.53;;;11.30;96.40;;;;;;5017917;28;20453;-49
2023/04/25 03:44:34;;;;;;;8.27;4.70;;;11.40;96.60;;;;;;5017669;28;20807;-50
2023/04/25 03:47:01;;;;;;;9.90;4.67;;;11.60;96.70;;;;;;5017907;28;20474;-49
2023/04/25 03:49:28;;;;;;;9.13;4.87;;;11.00;96.30;;;;;;5017282;28;20459;-49
2023/04/25 03:52:01;;;;;;;6.47;4.30;;;11.20;96.60;;;;;;5017595;28;20850;-49
2023/04/25 03:54:31;;;;;;;8.67;5.00;;;11.40;96.60;;;;;;5017502;28;20464;-49
2023/04/25 03:57:11;;;;;;;6.77;4.20;;;11.60;96.80;;;;;;5017668;28;20524;-49
2023/04/25 03:59:39;;;;;;;6.20;3.83;;;11.80;96.90;;;;;;5017000;28;20839;-49
2023/04/25 04:02:08;;;;;;;9.27;5.27;;;11.50;96.70;;;;;;5017649;28;20503;-49
2023/04/25 04:04:36;;;;;;;11.30;5.00;;;11.20;96.60;;;;;;5016738;28;20777;-49
2023/04/25 04:07:02;;;;;;;7.53;5.13;;;11.40;96.90;;;;;;5016536;28;21032;-49
2023/04/25 04:09:35;;;;;;;10.10;4.87;;;11.70;97.10;;;;;;5016951;28;20448;-49
2023/04/25 04:12:06;;;;;;;5.80;4.40;;;11.60;97.10;;;;;;5018476;28;20455;-49
2023/04/25 04:14:34;;;;;;;9.43;4.80;;;11.20;96.90;;;;;;5018101;28;20524;-50
2023/04/25 04:17:00;;;;;;;10.97;5.10;;;11.20;96.90;;;;;;5017261;28;20563;-49
2023/04/25 04:19:28;;;;;;;12.07;5.37;;;11.40;96.90;;;;;;5016362;28;20466;-50
2023/04/25 04:22:04;;;;;;;9.30;4.47;;;11.40;96.80;;;;;;5017449;28;20448;-49
2023/04/25 04:24:31;;;;;;;8.77;4.97;;;11.10;96.90;;;;;;5017010;28;20793;-49
2023/04/25 04:27:03;;;;;;;7.47;4.23;;;11.80;97.30;;;;;;5017657;28;20856;-49
2023/04/25 04:29:36;;;;;;;9.87;5.03;;;11.20;96.90;;;;;;5017048;28;20972;-49
2023/04/25 04:32:17;;;;;;;7.93;5.30;;;11.00;96.80;;;;;;5035199;28;20425;-50
2023/04/25 04:34:44;;;;;;;16.60;5.60;;;10.80;96.90;;;;;;5017102;28;20491;-50
2023/04/25 04:37:14;;;;;;;8.10;4.37;;;11.10;97.10;;;;;;5016727;28;20461;-50
2023/04/25 04:39:42;;;;;;;9.87;4.97;;;11.40;97.10;;;;;;5016644;28;20455;-50
2023/04/25 04:42:19;;;;;;;6.70;5.10;;;11.00;97.10;;;;;;5016847;28;20458;-50
2023/04/25 04:45:14;;;;;;;7.87;5.40;;;11.20;97.20;;;;;;5017215;28;20550;-50
2023/04/25 04:47:57;;;;;;;8.73;5.00;;;11.20;97.20;;;;;;5017155;28;20457;-50
2023/04/25 04:50:35;;;;;;;8.80;5.00;;;11.20;97.10;;;;;;5017321;28;20475;-50
2023/04/25 04:53:28;;;;;;;7.63;4.27;;;11.30;97.30;;;;;;5016949;28;20990;-50
2023/04/25 04:56:20;;;;;;;9.60;4.20;;;11.30;97.40;;;;;;5034812;28;20502;-50
2023/04/25 04:59:14;;;;;;;8.93;5.00;;;11.40;97.40;;;;;;4996436;28;20452;-50
2023/04/25 05:01:48;;;;;;;8.17;4.50;;;11.20;97.20;;;;;;5017383;28;20441;-49
2023/04/25 05:04:22;;;;;;;7.47;5.30;;;11.40;97.50;;;;;;5016636;28;20868;-50
2023/04/25 05:07:07;;;;;;;7.13;4.53;;;11.30;97.20;;;;;;5034071;28;20535;-50
2023/04/25 05:10:12;;;;;;;13.10;5.33;;;11.70;97.50;;;;;;4953044;29;20492;-49
2023/04/25 05:13:02;;;;;;;9.07;4.93;;;11.30;97.00;;;;;;4938022;29;21040;-50
2023/04/25 05:15:54;;;;;;;9.50;5.00;;;11.40;97.10;;;;;;5014875;28;20529;-51
2023/04/25 05:18:35;;;;;;;8.30;4.83;;;11.30;97.20;;;;;;5034071;28;20482;-49
2023/04/25 05:21:22;;;;;;;9.00;4.87;;;11.30;97.10;;;;;;5034144;28;20928;-50
2023/04/25 05:24:04;;;;;;;10.73;4.87;;;12.00;97.50;;;;;;5034418;28;20428;-49
2023/04/25 05:27:06;;;;;;;9.30;5.10;;;11.50;97.20;;;;;;4992554;28;20521;-51
2023/04/25 05:29:51;;;;;;;8.73;4.83;;;11.40;97.20;;;;;;5013691;28;20450;-50
2023/04/25 05:32:27;;;;;;;10.17;5.77;;;11.30;97.20;;;;;;5015974;28;20486;-50
2023/04/25 05:34:54;;;;;;;10.87;4.63;;;11.40;97.20;;;;;;5015633;28;20448;-50
2023/04/25 05:37:27;;;;;;;7.93;5.10;;;11.40;97.20;;;;;;5015456;28;20461;-49
2023/04/25 05:40:06;;;;;;;11.27;4.90;;;11.50;97.40;;;;;;5015560;28;20539;-52
2023/04/25 05:43:05;;;;;;;11.43;4.73;;;11.40;97.20;;;;;;5016875;28;20466;-49
2023/04/25 05:45:47;;;;;;;7.63;4.70;;;11.40;97.30;;;;;;5016465;28;20666;-49
2023/04/25 05:48:46;;;;;;;11.30;5.80;;;11.50;97.20;;;;;;5032977;28;20534;-51
2023/04/25 05:51:37;;;;;;;6.93;5.13;;;11.50;97.40;;;;;;5015836;28;20558;-50
2023/04/25 05:54:18;;;;;;;8.50;5.10;;;12.00;97.70;;;;;;5033113;28;20986;-49
2023/04/25 05:56:45;;;;;;;13.50;6.07;;;11.40;97.50;;;;;;5016127;28;20482;-50
2023/04/25 05:59:12;;;;;;;9.23;5.43;;;11.50;97.50;;;;;;5015189;28;20512;-50
2023/04/25 06:01:40;;;;;;;10.47;5.80;;;11.50;97.50;;;;;;5015418;28;20452;-51
2023/04/25 06:04:08;;;;;;;13.53;5.67;;;11.50;97.50;;;;;;5032394;28;20437;-50
2023/04/25 06:06:34;;;;;;;14.97;6.43;;;11.50;97.50;;;;;;5014834;28;20591;-51
2023/04/25 06:09:01;;;;;;;11.77;6.57;;;11.60;97.70;;;;;;5015445;28;20431;-51
2023/04/25 06:11:28;;;;;;;11.37;5.60;;;11.60;97.70;;;;;;5032738;28;20480;-50
2023/04/25 06:13:54;;;;;;;14.37;5.70;;;11.20;97.40;;;;;;5032953;28;20432;-50
2023/04/25 06:16:21;;;;;;;10.00;5.80;;;11.50;97.50;;;;;;5033061;28;20453;-50
2023/04/25 06:18:47;;;;;;;9.60;6.27;;;11.70;97.80;;;;;;5014871;28;20548;-49
2023/04/25 06:21:16;;;;;;;8.40;6.30;;;12.10;97.90;;;;;;5015704;28;20471;-51
2023/04/25 06:23:43;;;;;;;25.53;9.03;;;11.70;97.70;;;;;;5032397;28;20433;-50
2023/04/25 06:26:13;;;;;;;14.13;6.67;;;12.00;97.90;;;;;;5014616;28;20480;-51
2023/04/25 06:28:42;;;;;;;17.33;7.10;;;11.80;97.80;;;;;;5015478;28;20464;-51
2023/04/25 06:31:09;;;;;;;12.80;6.67;;;11.70;97.70;;;;;;5019287;28;20528;-50
2023/04/25 06:33:36;;;;;;;11.53;7.80;;;12.00;98.00;;;;;;5019129;28;20466;-50
2023/04/25 06:36:04;;;;;;;17.70;7.70;;;12.20;98.10;;;;;;5019545;28;20900;-51
2023/04/25 06:38:34;;;;;;;13.77;5.80;;;12.10;98.00;;;;;;5036204;28;20489;-50
2023/04/25 06:41:01;;;;;;;11.00;6.10;;;12.30;98.10;;;;;;5019208;28;20448;-52
2023/04/25 06:43:32;;;;;;;13.60;7.43;;;11.70;97.80;;;;;;5018740;28;20841;-51
2023/04/25 06:46:24;;;;;;;9.10;6.70;;;11.80;98.00;;;;;;5018410;28;20469;-49
2023/04/25 06:48:51;;;;;;;16.87;7.70;;;12.00;98.00;;;;;;5018146;28;20506;-49
2023/04/25 06:51:19;;;;;;;9.23;5.53;;;12.00;98.00;;;;;;5018085;28;20829;-50
2023/04/25 06:53:47;;;;;;;8.20;6.00;;;11.70;97.90;;;;;;5019075;28;20533;-49
2023/04/25 06:56:26;;;;;;;8.57;5.20;;;12.00;98.10;;;;;;5018297;28;20527;-50
2023/04/25 06:59:01;;;;;;;11.40;6.40;;;11.80;98.00;;;;;;5017994;28;20507;-50
2023/04/25 07:01:33;;;;;;;13.33;6.50;;;11.90;98.20;;;;;;5018750;28;20427;-50
2023/04/25 07:04:02;;;;;;;8.40;5.30;;;12.10;98.40;;;;;;5018511;28;20420;-51
2023/04/25 07:06:30;;;;;;;15.00;6.50;;;11.70;98.40;;;;;;5018832;28;20487;-49
2023/04/25 07:08:59;;;;;;;10.63;5.07;;;12.20;98.70;;;;;;5018404;28;20426;-53
2023/04/25 07:11:25;;;;;;;9.63;6.10;;;12.40;98.80;;;;;;5018777;28;20474;-52
2023/04/25 07:13:52;;;;;;;11.43;5.20;;;12.20;98.80;;;;;;5036039;28;20439;-51
2023/04/25 07:16:18;;;;;;;12.17;5.63;;;12.20;98.70;;;;;;5018159;28;20485;-50
2023/04/25 07:18:46;;;;;;;10.77;5.20;;;12.30;98.80;;;;;;5017308;28;20453;-50
2023/04/25 07:21:14;;;;;;;9.47;6.00;;;11.30;98.40;;;;;;5018199;28;20449;-50
2023/04/25 07:23:42;;;;;;;10.40;6.13;;;12.20;98.80;;;;;;5018519;28;20426;-50
2023/04/25 07:26:15;;;;;;;12.50;6.30;;;11.90;98.60;;;;;;5018250;28;20482;-51
2023/04/25 07:29:02;;;;;;;9.10;5.80;;;11.90;98.70;;;;;;5035302;28;20853;-51
2023/04/25 07:31:28;;;;;;;7.67;5.57;;;11.60;98.70;;;;;;5035836;28;20506;-51
2023/04/25 07:33:55;;;;;;;9.20;6.20;;;11.50;98.70;;;;;;5017618;28;20424;-51
2023/04/25 07:36:22;;;;;;;8.53;4.57;;;12.30;99.00;;;;;;5018444;28;20473;-50
2023/04/25 07:38:48;;;;;;;12.60;5.20;;;12.40;98.80;;;;;;5017720;28;20536;-50
2023/04/25 07:41:16;;;;;;;16.67;5.10;;;12.50;98.50;;;;;;5016379;28;20417;-50
2023/04/25 07:43:43;;;;;;;11.63;5.60;;;12.10;98.00;;;;;;5018041;28;20451;-51
2023/04/25 07:46:10;;;;;;;14.20;6.40;;;11.60;97.60;;;;;;5017184;28;20496;-50
2023/04/25 07:48:37;;;;;;;8.30;4.90;;;11.90;97.60;;;;;;5017017;28;20448;-51
2023/04/25 07:51:05;;;;;;;10.83;5.00;;;12.60;97.80;;;;;;5016746;28;20510;-51
2023/04/25 07:53:32;;;;;;;13.33;5.40;;;12.20;97.30;;;;;;5034038;28;20552;-49
2023/04/25 07:56:03;;;;;;;14.33;5.03;;;12.30;96.90;;;;;;5017746;28;20484;-50
2023/04/25 07:58:35;;;;;;;10.20;4.80;;;12.20;96.90;;;;;;5016623;28;20997;-49
2023/04/25 08:01:04;;;;;;;18.80;5.97;;;12.10;96.80;;;;;;5017481;28;20420;-49
2023/04/25 08:03:54;;;;;;;11.27;4.40;;;12.20;96.70;;;;;;5034063;28;20447;-49
2023/04/25 08:06:25;;;;;;;18.70;5.97;;;11.50;96.40;;;;;;5052499;23;20496;-50
2023/04/25 08:09:10;;;;;;;12.70;5.30;;;12.20;96.80;;;;;;5053698;28;20415;-49
2023/04/25 08:11:40;;;;;;;14.07;5.03;;;11.90;96.90;;;;;;5052329;28;20490;-49
2023/04/25 08:14:10;;;;;;;18.90;5.90;;;12.20;96.60;;;;;;5052668;28;20862;-48
2023/04/25 08:16:38;;;;;;;15.63;6.53;;;11.80;96.10;;;;;;5052002;28;20546;-49
2023/04/25 08:19:05;;;;;;;13.87;5.50;;;12.70;96.10;;;;;;5051779;28;20484;-50
2023/04/25 08:21:32;;;;;;;11.80;5.43;;;12.30;95.50;;;;;;5053296;28;20429;-49
2023/04/25 08:24:02;;;;;;;14.30;4.50;;;12.60;95.10;;;;;;5052347;28;20418;-49
2023/04/25 08:26:32;;;;;;;20.33;5.57;;;12.80;95.00;;;;;;5051864;28;20468;-50
2023/04/25 08:28:59;;;;;;;13.70;4.40;;;12.20;94.50;;;;;;5051773;28;20956;-50
2023/04/25 08:31:28;;;;;;;15.33;5.20;;;12.00;94.50;;;;;;5053622;28;21066;-50
2023/04/25 08:33:58;;;;;;;13.23;5.00;;;12.60;95.00;;;;;;5051948;28;20426;-50
2023/04/25 08:36:39;;;;;;;15.00;5.30;;;12.60;94.90;;;;;;5051793;28;20539;-49
2023/04/25 08:39:14;;;;;;;10.87;4.73;;;13.10;94.90;;;;;;5051446;28;20456;-48
2023/04/25 08:41:48;;;;;;;15.57;5.07;;;12.90;94.60;;;;;;5051757;28;20454;-49
2023/04/25 08:44:17;;;;;;;13.00;4.53;;;12.60;94.00;;;;;;5051348;28;20942;-49
2023/04/25 08:46:49;;;;;;;20.30;5.47;;;12.90;93.00;;;;;;5051922;28;20517;-49
2023/04/25 08:49:25;;;;;;;14.10;4.87;;;12.80;92.60;;;;;;5051223;28;20979;-51
2023/04/25 08:51:54;;;;;;;16.50;6.60;;;12.70;92.50;;;;;;5051135;28;21011;-50
2023/04/25 08:54:27;;;;;;;16.80;4.87;;;12.80;92.20;;;;;;5051533;28;20464;-50
2023/04/25 08:56:55;;;;;;;21.17;6.03;;;13.10;91.90;;;;;;5051433;28;20479;-50
2023/04/25 08:59:23;;;;;;;15.03;5.60;;;12.90;91.80;;;;;;5050889;28;20458;-50
2023/04/25 09:01:52;;;;;;;15.63;4.93;;;13.20;91.80;;;;;;5051333;28;20540;-48
2023/04/25 09:04:22;;;;;;;15.20;5.03;;;13.20;91.20;;;;;;5051404;28;20461;-49
2023/04/25 09:06:50;;;;;;;14.53;4.00;;;13.40;90.50;;;;;;5051283;28;20481;-50
2023/04/25 09:09:16;;;;;;;10.90;4.27;;;13.50;90.10;;;;;;5050708;28;20423;-49
2023/04/25 09:11:44;;;;;;;14.07;3.90;;;14.10;89.10;;;;;;5051143;28;20469;-49
2023/04/25 09:14:15;;;;;;;13.13;3.90;;;13.50;86.30;;;;;;5051328;28;20449;-50
2023/04/25 09:17:03;;;;;;;14.73;3.90;;;13.80;86.50;;;;;;5052344;28;20499;-50
2023/04/25 09:19:39;;;;;;;12.93;4.37;;;13.70;85.90;;;;;;5052110;28;20454;-50
2023/04/25 09:22:10;;;;;;;11.17;3.80;;;13.80;85.80;;;;;;5051108;28;20546;-49
2023/04/25 09:24:39;;;;;;;11.13;4.93;;;13.40;84.30;;;;;;5051015;28;20450;-50
2023/04/25 09:27:07;;;;;;;11.17;3.70;;;13.80;82.80;;;;;;5051383;28;20462;-50
2023/04/25 09:29:34;;;;;;;7.50;3.80;;;13.90;81.70;;;;;;5052659;28;20437;-51
2023/04/25 09:32:17;;;;;;;13.87;4.53;;;14.10;80.20;;;;;;5051268;28;20547;-51
2023/04/25 09:34:49;;;;;;;13.43;3.60;;;14.40;78.10;;;;;;5051639;28;20982;-50
2023/04/25 09:37:21;;;;;;;13.70;4.27;;;14.60;79.00;;;;;;5052117;28;21000;-50
2023/04/25 09:40:07;;;;;;;10.83;2.97;;;13.80;78.00;;;;;;5052720;28;20951;-50
2023/04/25 09:42:43;;;;;;;7.70;3.83;;;14.20;77.00;;;;;;5051125;28;20445;-49
2023/04/25 09:45:14;;;;;;;9.73;4.03;;;14.00;77.20;;;;;;5050389;28;20453;-49
2023/04/25 09:47:44;;;;;;;7.93;3.27;;;14.60;76.70;;;;;;5050836;28;20478;-50
2023/04/25 09:50:15;;;;;;;7.10;3.20;;;14.00;74.90;;;;;;5050705;28;20443;-49
2023/04/25 09:52:44;;;;;;;10.87;3.13;;;14.10;72.50;;;;;;5051236;28;20522;-50
2023/04/25 09:55:17;;;;;;;7.13;2.60;;;14.00;71.30;;;;;;5050659;28;20983;-49
2023/04/25 09:57:50;;;;;;;13.20;3.10;;;13.80;71.40;;;;;;5050152;28;20477;-49
2023/04/25 10:00:19;;;;;;;9.00;2.80;;;14.10;71.30;;;;;;5050185;28;20851;-50
2023/04/25 10:02:49;;;;;;;12.00;4.30;;;13.60;69.80;;;;;;5051671;28;20433;-50
2023/04/25 10:05:44;;;;;;;7.80;3.47;;;13.90;69.50;;;;;;5051775;28;20461;-49
2023/04/25 10:08:12;;;;;;;10.80;4.03;;;14.00;70.40;;;;;;5050046;28;20946;-50
2023/04/25 10:10:41;;;;;;;12.10;3.90;;;14.00;69.60;;;;;;5052175;28;20283;-49
2023/04/25 10:13:08;;;;;;;7.47;3.50;;;14.30;71.00;;;;;;5051980;28;20460;-49
2023/04/25 10:15:36;;;;;;;12.57;3.80;;;14.20;69.90;;;;;;5051891;28;20963;-50
2023/04/25 10:18:05;;;;;;;12.73;3.73;;;14.20;68.70;;;;;;5051995;28;20430;-50
2023/04/25 10:20:32;;;;;;;14.77;7.40;;;13.80;68.00;;;;;;5051473;28;20621;-49
2023/04/25 10:23:08;;;;;;;9.37;3.30;;;14.40;68.40;;;;;;5051500;28;20465;-49
2023/04/25 10:25:35;;;;;;;8.53;3.50;;;14.80;67.70;;;;;;5051403;28;20481;-50
2023/04/25 10:28:04;;;;;;;7.90;3.13;;;14.90;67.30;;;;;;5051492;28;20435;-49
2023/04/25 10:30:30;;;;;;;9.53;3.60;;;14.90;67.00;;;;;;5051385;28;20872;-50
2023/04/25 10:32:59;;;;;;;10.90;3.90;;;14.80;66.50;;;;;;5050925;28;20480;-49
2023/04/25 10:35:29;;;;;;;9.60;3.10;;;14.10;64.70;;;;;;5051435;28;20443;-49
2023/04/25 10:38:03;;;;;;;8.47;3.67;;;14.50;64.80;;;;;;5051618;28;20434;-49
2023/04/25 10:40:30;;;;;;;9.43;3.43;;;13.70;64.00;;;;;;5050108;28;20442;-50
2023/04/25 10:43:16;;;;;;;8.43;3.10;;;14.20;64.20;;;;;;5051369;28;20417;-49
2023/04/25 10:45:54;;;;;;;8.70;3.17;;;14.20;64.40;;;;;;5051310;28;20971;-50
2023/04/25 10:48:26;;;;;;;9.10;3.10;;;13.90;63.50;;;;;;5051131;28;20424;-50
2023/04/25 10:51:08;;;;;;;12.30;3.73;;;13.50;63.50;;;;;;5051252;28;20423;-49
2023/04/25 10:53:34;;;;;;;8.50;3.93;;;14.10;64.50;;;;;;5051513;28;20471;-49
2023/04/25 10:56:04;;;;;;;10.47;4.53;;;13.70;63.80;;;;;;5051644;28;20454;-50
2023/04/25 10:58:30;;;;;;;5.70;2.93;;;14.60;64.50;;;;;;5050620;28;20506;-50
2023/04/25 11:00:58;;;;;;;9.20;2.93;;;14.60;63.40;;;;;;5051364;28;20437;-48
2023/04/25 11:03:25;;;;;;;9.97;5.37;;;14.60;62.70;;;;;;5051083;28;20412;-49
2023/04/25 11:05:53;;;;;;;10.00;4.50;;;15.00;62.10;;;;;;5051070;28;20777;-50
2023/04/25 11:08:33;;;;;;;10.00;3.57;;;15.10;61.80;;;;;;5050830;28;20477;-50
2023/04/25 11:11:00;;;;;;;9.20;3.57;;;15.00;61.00;;;;;;5051431;28;20464;-50
2023/04/25 11:13:30;;;;;;;5.97;2.90;;;15.10;61.70;;;;;;5051306;28;20557;-50
2023/04/25 11:15:57;;;;;;;10.27;3.30;;;14.60;59.80;;;;;;5054453;28;20446;-51
2023/04/25 11:18:28;;;;;;;6.78;3.17;;;14.60;60.20;;;;;;5054452;28;20373;-50
2023/04/25 11:20:55;;;;;;;7.70;3.00;;;14.80;60.20;;;;;;5054806;28;20569;-50
2023/04/25 11:23:22;;;;;;;8.00;2.80;;;14.00;59.40;;;;;;5054663;28;20435;-50
2023/04/25 11:25:50;;;;;;;7.97;3.47;;;13.70;60.70;;;;;;5054568;28;20425;-50
2023/04/25 11:28:22;;;;;;;14.33;3.70;;;13.60;61.80;;;;;;5054423;28;20445;-50
2023/04/25 11:30:49;;;;;;;11.30;3.30;;;13.80;62.80;;;;;;5054722;28;20491;-49
2023/04/25 11:33:16;;;;;;;15.47;4.10;;;13.30;62.10;;;;;;5054264;28;20810;-50
2023/04/25 11:35:44;;;;;;;18.70;3.70;;;13.70;62.60;;;;;;5054259;28;20527;-50
2023/04/25 11:38:11;;;;;;;9.00;2.90;;;13.70;61.80;;;;;;5053727;28;20412;-50
2023/04/25 11:40:38;;;;;;;7.83;3.00;;;13.80;61.10;;;;;;5052900;28;20412;-50
2023/04/25 11:43:04;;;;;;;7.30;2.77;;;13.90;61.20;;;;;;5053923;28;20410;-50
2023/04/25 11:45:31;;;;;;;7.37;2.80;;;14.20;60.50;;;;;;5054281;28;20405;-49
2023/04/25 11:47:58;;;;;;;6.43;3.00;;;13.70;58.80;;;;;;5054054;28;20413;-50
2023/04/25 11:50:25;;;;;;;9.00;2.80;;;14.20;59.00;;;;;;5054294;28;20422;-50
2023/04/25 11:52:57;;;;;;;15.47;3.67;;;14.00;58.20;;;;;;5053856;28;20488;-49
2023/04/25 11:55:24;;;;;;;5.13;2.37;;;14.20;58.60;;;;;;5054615;28;20505;-51
2023/04/25 11:57:51;;;;;;;9.00;2.60;;;14.10;58.50;;;;;;5053803;28;20465;-50
2023/04/25 12:00:20;;;;;;;11.50;3.77;;;14.30;58.80;;;;;;5053532;28;20420;-50
2023/04/25 12:02:49;;;;;;;8.93;2.70;;;14.00;57.90;;;;;;5054189;28;20405;-49
2023/04/25 12:05:16;;;;;;;10.30;3.17;;;14.40;58.20;;;;;;5052696;28;20921;-49
2023/04/25 12:07:43;;;;;;;9.87;2.50;;;14.40;58.50;;;;;;5054445;28;20448;-48
2023/04/25 12:10:13;;;;;;;10.50;4.97;;;14.10;58.70;;;;;;5053985;28;21022;-49
2023/04/25 12:12:43;;;;;;;9.43;3.60;;;14.10;58.70;;;;;;5052934;28;20459;-49
2023/04/25 12:15:11;;;;;;;10.47;3.90;;;13.80;58.50;;;;;;5054762;28;20431;-50
2023/04/25 12:17:38;;;;;;;7.40;2.53;;;14.50;59.20;;;;;;5054480;28;20855;-51
2023/04/25 12:20:09;;;;;;;5.63;2.60;;;13.90;58.70;;;;;;5053704;28;20438;-49
2023/04/25 12:22:36;;;;;;;12.47;3.20;;;13.90;58.20;;;;;;5054487;28;20841;-50
2023/04/25 12:25:03;;;;;;;7.17;2.40;;;13.90;58.90;;;;;;5054372;28;20451;-50
2023/04/25 12:27:32;;;;;;;23.40;3.60;;;14.00;59.10;;;;;;5053184;28;20441;-50
2023/04/25 12:29:59;;;;;;;5.87;2.50;;;13.70;58.20;;;;;;5053521;28;20425;-50
2023/04/25 12:32:26;;;;;;;6.77;2.60;;;14.20;58.10;;;;;;5054237;28;20412;-51
2023/04/25 12:34:52;;;;;;;6.33;2.33;;;14.20;57.80;;;;;;5054391;28;20448;-50
2023/04/25 12:37:20;;;;;;;8.67;3.13;;;14.40;58.30;;;;;;5053570;28;20943;-50
2023/04/25 12:39:46;;;;;;;11.83;3.90;;;14.10;57.90;;;;;;5052320;28;20515;-51
2023/04/25 12:42:13;;;;;;;4.90;2.53;;;14.70;57.50;;;;;;5053535;28;20531;-51
2023/04/25 12:44:41;;;;;;;7.00;4.40;;;14.30;56.70;;;;;;5053161;28;20747;-49
2023/04/25 12:47:08;;;;;;;6.20;2.43;;;14.50;57.00;;;;;;5053159;28;20479;-50
2023/04/25 12:49:35;;;;;;;8.60;2.80;;;14.30;56.50;;;;;;5052578;28;20442;-50
2023/04/25 12:52:01;;;;;;;6.40;2.73;;;14.80;57.00;;;;;;5053230;28;20408;-51
2023/04/25 12:54:28;;;;;;;9.47;3.53;;;15.00;56.90;;;;;;5051102;28;20839;-50
2023/04/25 12:56:54;;;;;;;6.90;2.03;;;14.60;56.60;;;;;;5052309;28;20932;-50
2023/04/25 12:59:21;;;;;;;8.00;2.63;;;15.00;56.90;;;;;;5051619;28;20441;-50
2023/04/25 13:01:49;;;;;;;10.40;4.50;;;15.00;56.30;;;;;;5052396;28;20934;-50